Time;durP1;ratioP1;P1;durP2;ratioP2;P2;SDS_P1;SDS_P2;PMS_P1;PMS_P2;Temp;Humidity;BMP_temperature;BMP_pressure;BME280_temperature;BME280_humidity;BME280_pressure;Samples;Min_cycle;Max_cycle;Signal;HPM_P1;HPM_P2
2021/09/22 00:00:34;;;;;;;8.20;7.40;;;23.60;52.70;;;;;;6289777;22;20176;-87
2021/09/22 00:02:59;;;;;;;8.90;7.53;;;23.50;52.60;;;;;;6233839;23;20388;-87
2021/09/22 00:05:25;;;;;;;8.40;7.40;;;23.50;52.60;;;;;;6234503;23;20504;-87
2021/09/22 00:08:00;;;;;;;8.70;7.80;;;23.60;52.70;;;;;;6233872;23;20147;-87
2021/09/22 00:10:25;;;;;;;9.77;7.73;;;23.60;52.70;;;;;;6233652;23;20593;-87
2021/09/22 00:12:52;;;;;;;9.43;8.17;;;23.60;52.70;;;;;;6261275;23;20369;-87
2021/09/22 00:15:24;;;;;;;9.77;7.30;;;23.50;52.60;;;;;;6234771;23;20154;-87
2021/09/22 00:17:50;;;;;;;8.23;7.30;;;23.60;52.70;;;;;;6233210;23;20374;-87
2021/09/22 00:20:17;;;;;;;10.00;8.33;;;23.60;52.70;;;;;;6233604;23;20416;-87
2021/09/22 00:22:43;;;;;;;8.27;7.03;;;23.60;52.70;;;;;;6233857;23;20377;-87
2021/09/22 00:25:11;;;;;;;9.37;8.07;;;23.60;52.70;;;;;;6260909;23;20736;-87
2021/09/22 00:27:37;;;;;;;8.10;7.30;;;23.50;52.60;;;;;;6261336;23;20392;-87
2021/09/22 00:30:04;;;;;;;10.87;8.20;;;23.50;52.60;;;;;;6261870;23;20380;-87
2021/09/22 00:32:30;;;;;;;8.50;7.40;;;23.50;52.60;;;;;;6234888;23;20464;-87
2021/09/22 00:34:56;;;;;;;7.60;6.63;;;23.50;52.60;;;;;;6234848;23;20380;-87
2021/09/22 00:37:28;;;;;;;9.00;7.53;;;23.60;52.70;;;;;;6235358;23;20155;-87
2021/09/22 00:39:54;;;;;;;9.37;7.70;;;23.60;53.00;;;;;;6264075;23;20131;-87
2021/09/22 00:42:20;;;;;;;8.60;6.87;;;23.60;52.70;;;;;;6236605;23;20385;-87
2021/09/22 00:48:08;;;;;;;9.97;7.50;;;23.60;52.70;;;;;;6263636;23;20141;-87
2021/09/22 00:50:35;;;;;;;9.00;7.57;;;23.50;52.70;;;;;;6237580;23;20377;-87
2021/09/22 00:53:01;;;;;;;8.50;7.70;;;23.50;52.70;;;;;;6236859;23;20369;-87
2021/09/22 00:55:30;;;;;;;8.97;7.30;;;23.50;52.70;;;;;;6236301;23;20377;-87
2021/09/22 00:58:03;;;;;;;10.07;8.07;;;23.50;52.70;;;;;;6236713;23;20407;-87
2021/09/22 01:00:29;;;;;;;10.33;7.20;;;23.50;52.70;;;;;;6263512;22;20349;-87
2021/09/22 01:02:55;;;;;;;10.20;8.00;;;23.50;52.70;;;;;;6264032;23;20425;-87
2021/09/22 01:05:25;;;;;;;9.23;7.33;;;23.50;52.70;;;;;;6236495;23;20420;-87
2021/09/22 01:07:52;;;;;;;9.43;7.57;;;23.50;52.70;;;;;;6263411;23;20373;-87
2021/09/22 01:10:18;;;;;;;7.90;6.97;;;23.50;52.70;;;;;;6236250;23;20417;-87
2021/09/22 01:12:44;;;;;;;7.90;7.10;;;23.60;52.70;;;;;;6263706;23;20436;-87
2021/09/22 01:15:11;;;;;;;7.77;7.07;;;23.50;52.70;;;;;;6236684;23;20759;-87
2021/09/22 01:17:37;;;;;;;8.40;7.50;;;23.60;52.80;;;;;;6235883;23;20389;-87
2021/09/22 01:20:08;;;;;;;8.30;7.50;;;23.60;52.70;;;;;;6236102;23;20385;-87
2021/09/22 01:22:51;;;;;;;7.90;7.07;;;23.50;52.70;;;;;;6236387;23;20435;-87
2021/09/22 01:25:20;;;;;;;7.33;6.60;;;23.50;52.70;;;;;;6262564;23;20407;-87
2021/09/22 01:27:49;;;;;;;8.50;7.00;;;23.50;52.80;;;;;;6263410;23;20366;-87
2021/09/22 01:30:15;;;;;;;8.10;7.10;;;23.50;52.70;;;;;;6236436;23;20370;-87
2021/09/22 01:32:55;;;;;;;8.00;6.97;;;23.50;52.70;;;;;;6211084;23;20405;-87
2021/09/22 01:35:22;;;;;;;8.00;7.10;;;23.50;52.70;;;;;;6236085;23;20385;-86
2021/09/22 01:37:51;;;;;;;8.90;7.60;;;23.50;52.80;;;;;;6263227;23;20370;-87
2021/09/22 01:40:29;;;;;;;8.83;7.40;;;23.50;52.70;;;;;;6236712;23;20420;-87
2021/09/22 01:42:56;;;;;;;8.63;7.83;;;23.50;52.70;;;;;;6235815;23;20388;-87
2021/09/22 01:45:22;;;;;;;8.63;6.70;;;23.50;52.80;;;;;;6262885;23;20413;-87
2021/09/22 01:47:48;;;;;;;8.40;7.57;;;23.50;52.70;;;;;;6236498;23;20915;-87
2021/09/22 01:50:23;;;;;;;8.40;6.83;;;23.50;52.70;;;;;;6235575;23;20369;-87
2021/09/22 01:52:54;;;;;;;9.23;6.70;;;23.50;52.80;;;;;;6263386;23;20146;-87
2021/09/22 01:55:23;;;;;;;7.10;6.40;;;23.50;52.80;;;;;;6237588;23;20382;-87
2021/09/22 01:57:54;;;;;;;7.80;6.40;;;23.50;52.80;;;;;;6236223;23;20385;-87
2021/09/22 02:00:22;;;;;;;7.77;6.83;;;23.50;52.80;;;;;;6238242;23;20381;-88
2021/09/22 02:02:55;;;;;;;6.90;6.20;;;23.50;52.80;;;;;;6238613;23;20433;-88
2021/09/22 02:05:21;;;;;;;7.43;6.57;;;23.50;52.80;;;;;;6238385;23;20413;-89
2021/09/22 02:11:09;;;;;;;7.53;6.83;;;23.50;52.80;;;;;;6265374;23;20138;-89
2021/09/22 02:13:35;;;;;;;11.63;6.53;;;23.50;52.80;;;;;;6239301;23;20417;-89
2021/09/22 02:16:04;;;;;;;7.90;7.17;;;23.50;52.90;;;;;;6239117;23;20159;-89
2021/09/22 02:18:33;;;;;;;8.13;6.50;;;23.50;52.90;;;;;;6239698;23;20384;-88
2021/09/22 02:20:59;;;;;;;6.93;6.23;;;23.50;52.90;;;;;;6239334;23;20404;-89
2021/09/22 02:23:25;;;;;;;7.90;7.10;;;23.50;52.90;;;;;;6239080;23;20373;-88
2021/09/22 02:25:53;;;;;;;7.60;6.83;;;23.50;52.90;;;;;;6265580;23;20424;-89
2021/09/22 02:28:21;;;;;;;7.33;6.60;;;23.50;52.90;;;;;;6239589;23;20379;-88
2021/09/22 02:31:02;;;;;;;6.67;6.07;;;23.50;52.80;;;;;;6239120;23;20370;-89
2021/09/22 02:33:30;;;;;;;8.20;6.73;;;23.50;52.80;;;;;;6265687;23;20349;-89
2021/09/22 02:35:58;;;;;;;6.57;5.90;;;23.50;52.90;;;;;;6238535;23;20390;-89
2021/09/22 02:38:24;;;;;;;7.87;6.70;;;23.50;52.90;;;;;;6238914;23;20381;-88
2021/09/22 02:40:50;;;;;;;6.90;5.93;;;23.50;52.90;;;;;;6238615;23;20392;-88
2021/09/22 02:43:18;;;;;;;7.37;5.77;;;23.50;52.90;;;;;;6238791;23;20381;-88
2021/09/22 02:45:48;;;;;;;6.10;5.50;;;23.50;52.90;;;;;;6239411;23;20233;-89
2021/09/22 02:48:15;;;;;;;7.30;6.33;;;23.50;52.90;;;;;;6238526;23;20377;-88
2021/09/22 02:50:41;;;;;;;7.40;6.60;;;23.50;52.90;;;;;;6239356;23;20377;-88
2021/09/22 02:53:09;;;;;;;6.90;6.30;;;23.50;52.90;;;;;;6265774;23;20399;-88
2021/09/22 02:55:35;;;;;;;6.90;6.20;;;23.50;52.90;;;;;;6266036;23;20370;-88
2021/09/22 02:58:04;;;;;;;6.57;5.97;;;23.50;52.90;;;;;;6238935;23;20381;-88
2021/09/22 03:00:39;;;;;;;6.63;6.03;;;23.50;52.90;;;;;;6239442;22;20408;-88
2021/09/22 03:03:04;;;;;;;6.40;5.80;;;23.50;52.90;;;;;;6239052;23;20388;-88
2021/09/22 03:05:30;;;;;;;6.70;6.00;;;23.50;52.90;;;;;;6238508;23;20417;-88
2021/09/22 03:07:56;;;;;;;6.80;6.10;;;23.50;52.90;;;;;;6238566;23;20166;-88
2021/09/22 03:10:22;;;;;;;6.63;6.10;;;23.50;52.90;;;;;;6265526;23;20365;-88
2021/09/22 03:12:49;;;;;;;6.30;5.70;;;23.50;52.90;;;;;;6238505;23;20381;-88
2021/09/22 03:15:17;;;;;;;7.63;6.57;;;23.50;52.90;;;;;;6238819;23;20844;-88
2021/09/22 03:17:44;;;;;;;7.70;5.70;;;23.50;52.90;;;;;;6238980;23;20389;-88
2021/09/22 03:20:17;;;;;;;6.87;6.17;;;23.50;53.50;;;;;;6239094;23;20397;-88
2021/09/22 03:23:45;;;;;;;;;;;;;;;;;;;;;
2021/09/22 03:26:13;;;;;;;7.20;6.50;;;23.50;52.80;;;;;;6114135;23;20436;-88
2021/09/22 03:28:51;;;;;;;6.00;5.50;;;23.40;52.90;;;;;;6114226;23;20413;-88
2021/09/22 03:31:17;;;;;;;7.37;5.50;;;23.50;52.90;;;;;;6114291;23;20396;-88
2021/09/22 03:33:44;;;;;;;5.87;5.07;;;23.40;52.90;;;;;;6114702;23;20370;-88
2021/09/22 03:36:13;;;;;;;6.27;5.50;;;23.40;52.90;;;;;;6090435;23;20393;-88
2021/09/22 03:38:42;;;;;;;7.90;6.50;;;23.40;52.90;;;;;;6089783;23;20390;-88
2021/09/22 03:41:24;;;;;;;6.30;5.70;;;23.50;52.90;;;;;;6114588;23;20386;-88
2021/09/22 03:43:50;;;;;;;6.23;5.63;;;23.50;52.90;;;;;;6089792;23;20403;-88
2021/09/22 03:46:16;;;;;;;6.13;5.47;;;23.50;53.00;;;;;;6114168;23;20991;-88
2021/09/22 03:48:44;;;;;;;6.70;5.87;;;23.50;53.00;;;;;;6114521;23;20389;-88
2021/09/22 03:51:11;;;;;;;7.23;5.90;;;23.50;53.00;;;;;;6089285;23;20413;-88
2021/09/22 03:53:37;;;;;;;6.77;5.40;;;23.50;52.90;;;;;;6089739;23;20885;-88
2021/09/22 03:56:46;;;;;;;6.90;6.23;;;23.50;52.90;;;;;;6089261;23;20397;-88
2021/09/22 03:59:14;;;;;;;6.43;5.83;;;23.50;52.90;;;;;;6113900;23;20154;-89
2021/09/22 04:01:40;;;;;;;5.40;4.90;;;23.50;53.00;;;;;;6148140;23;20397;-88
2021/09/22 04:04:14;;;;;;;6.40;5.30;;;23.40;53.00;;;;;;6238834;23;20460;-88
2021/09/22 04:06:40;;;;;;;6.37;5.77;;;23.50;53.00;;;;;;6237489;23;20420;-88
2021/09/22 04:12:36;;;;;;;6.13;5.53;;;23.50;53.60;;;;;;6264838;23;20362;-89
2021/09/22 04:15:21;;;;;;;7.03;5.70;;;23.50;53.10;;;;;;6239770;23;20369;-87
2021/09/22 04:18:04;;;;;;;5.90;4.60;;;23.40;53.00;;;;;;6236794;23;20432;-87
2021/09/22 04:30:53;;;;;;;6.03;5.53;;;23.40;53.10;;;;;;6139912;23;20392;-86
2021/09/22 04:37:36;;;;;;;;;;;;;;;;;;;;;
2021/09/22 04:41:17;;;;;;;;;;;;;;;;;;;;;
2021/09/22 04:56:59;;;;;;;;;;;;;;;;;;;;;
2021/09/22 05:09:46;;;;;;;14.60;9.40;;;23.40;53.10;;;;;;6111285;23;20446;-87
2021/09/22 05:12:21;;;;;;;13.90;11.23;;;23.40;53.10;;;;;;6087022;23;20447;-87
2021/09/22 05:22:17;;;;;;;;;;;;;;;;;;;;;
2021/09/22 05:25:02;;;;;;;;;;;;;;;;;;;;;
2021/09/22 05:28:07;;;;;;;;;;;;;;;;;;;;;
2021/09/22 05:31:05;;;;;;;18.30;12.60;;;23.50;53.20;;;;;;6019875;23;20411;-86
2021/09/22 05:34:19;;;;;;;17.40;10.63;;;23.40;53.10;;;;;;5993945;23;20381;-87
2021/09/22 05:37:31;;;;;;;;;;;;;;;;;;;;;
2021/09/22 05:53:27;;;;;;;16.30;11.47;;;23.40;53.20;;;;;;6119850;23;20373;-87
2021/09/22 05:59:56;;;;;;;15.33;10.93;;;23.40;53.20;;;;;;6086427;23;20476;-87
2021/09/22 06:02:36;;;;;;;18.50;11.17;;;23.40;53.20;;;;;;6115950;23;20400;-87
2021/09/22 06:05:34;;;;;;;;;;;;;;;;;;;;;
2021/09/22 08:49:35;;;;;;;7.50;6.27;;;24.30;53.20;;;;;;6232397;22;20459;-88
2021/09/22 08:56:07;;;;;;;;;;;;;;;;;;;;;
2021/09/22 09:23:16;;;;;;;8.30;6.77;;;24.30;53.80;;;;;;5944641;24;20411;-86
2021/09/22 09:58:12;;;;;;;;;;;;;;;;;;;;;
2021/09/22 11:11:59;;;;;;;;;;;;;;;;;;;;;
2021/09/22 11:18:16;;;;;;;5.83;5.23;;;24.50;53.50;;;;;;6264959;23;20365;-88
2021/09/22 11:20:51;;;;;;;5.53;4.80;;;24.40;53.50;;;;;;6240544;23;20914;-86
2021/09/22 11:23:36;;;;;;;;;;;;;;;;;;;;;
2021/09/22 11:26:10;;;;;;;5.37;4.17;;;24.40;53.60;;;;;;6267598;23;20409;-87
2021/09/22 11:29:40;;;;;;;5.13;4.00;;;24.40;53.60;;;;;;6266944;23;20365;-87
2021/09/22 11:32:26;;;;;;;5.57;4.50;;;24.40;53.60;;;;;;6205038;23;20377;-86
2021/09/22 11:34:54;;;;;;;7.30;4.80;;;24.30;53.60;;;;;;6172127;23;20711;-86
2021/09/22 11:37:47;;;;;;;6.43;5.40;;;24.30;53.60;;;;;;6265750;23;20370;-87
2021/09/22 11:40:26;;;;;;;7.27;5.13;;;24.30;53.60;;;;;;6238939;23;20527;-87
2021/09/22 11:42:59;;;;;;;7.37;5.03;;;24.30;53.60;;;;;;6238919;23;20373;-86
2021/09/22 11:45:27;;;;;;;8.23;5.40;;;24.30;53.60;;;;;;6238739;23;20417;-87
2021/09/22 11:51:25;;;;;;;8.90;6.73;;;24.30;53.60;;;;;;6239107;23;20389;-86
2021/09/22 12:14:27;;;;;;;9.03;4.27;;;24.10;53.60;;;;;;6112688;23;20502;-86
2021/09/22 12:17:24;;;;;;;5.03;4.53;;;24.10;54.10;;;;;;6112147;23;20397;-86
2021/09/22 12:19:52;;;;;;;5.90;4.20;;;24.10;53.60;;;;;;6111941;23;20489;-86
2021/09/22 12:23:25;;;;;;;4.33;3.80;;;24.10;53.60;;;;;;6111771;23;20386;-86
2021/09/22 12:29:57;;;;;;;6.27;5.03;;;24.10;53.60;;;;;;5996293;23;20405;-86
2021/09/22 12:32:51;;;;;;;7.30;4.43;;;24.00;53.50;;;;;;5971718;24;20370;-86
2021/09/22 12:35:48;;;;;;;5.93;4.07;;;24.00;53.50;;;;;;6022188;23;20411;-86
2021/09/22 12:38:22;;;;;;;5.73;4.30;;;24.00;53.60;;;;;;6056175;23;20400;-86
2021/09/22 12:40:58;;;;;;;5.70;4.00;;;24.00;53.60;;;;;;6031670;23;20391;-86
2021/09/22 12:43:37;;;;;;;7.53;4.30;;;24.00;53.50;;;;;;6032344;23;20375;-86
2021/09/22 12:46:43;;;;;;;;;;;;;;;;;;;;;
2021/09/22 12:52:33;;;;;;;5.27;4.03;;;24.00;53.50;;;;;;6085079;23;20435;-86
2021/09/22 12:55:42;;;;;;;;;;;;;;;;;;;;;
2021/09/22 13:02:00;;;;;;;3.97;3.60;;;24.00;53.50;;;;;;6104905;23;20357;-86
2021/09/22 13:04:31;;;;;;;5.27;3.63;;;23.90;53.50;;;;;;6148128;23;20809;-86
2021/09/22 13:07:03;;;;;;;5.23;3.90;;;23.90;53.50;;;;;;6171894;23;20416;-86
2021/09/22 13:09:43;;;;;;;4.50;3.90;;;23.90;53.50;;;;;;6172014;23;20407;-86
2021/09/22 13:12:29;;;;;;;4.50;3.70;;;24.00;53.60;;;;;;6172463;23;20392;-86
2021/09/22 13:15:10;;;;;;;;;;;;;;;;;;;;;
2021/09/22 13:17:36;;;;;;;3.90;3.37;;;23.90;53.50;;;;;;6172737;23;20407;-86
2021/09/22 13:26:32;;;;;;;3.53;2.80;;;23.90;53.40;;;;;;6084893;23;20498;-89
2021/09/22 13:29:01;;;;;;;3.67;3.37;;;23.90;53.50;;;;;;6085752;23;20402;-86
2021/09/22 13:34:32;;;;;;;3.40;3.10;;;24.00;53.60;;;;;;6115421;23;20377;-86
2021/09/22 13:37:07;;;;;;;4.63;3.53;;;23.90;53.50;;;;;;6146384;23;20353;-87
2021/09/22 13:39:51;;;;;;;3.37;3.07;;;23.90;53.50;;;;;;6123561;23;20465;-87
2021/09/22 13:42:23;;;;;;;5.47;3.37;;;23.90;53.50;;;;;;6146303;23;20409;-87
2021/09/22 13:44:51;;;;;;;3.90;2.90;;;23.90;53.50;;;;;;6121524;23;20384;-87
2021/09/22 13:53:29;;;;;;;3.87;2.83;;;23.90;53.40;;;;;;6146008;23;20473;-86
2021/09/22 14:26:44;;;;;;;2.90;2.50;;;23.90;53.40;;;;;;6139143;23;20669;-88
2021/09/22 14:40:35;;;;;;;;;;;;;;;;;;;;;
2021/09/22 15:42:00;;;;;;;2.27;2.00;;;24.00;53.60;;;;;;5914882;24;20391;-87
2021/09/22 15:51:52;;;;;;;3.00;2.30;;;24.00;53.60;;;;;;6028255;23;20430;-86
2021/09/22 15:54:20;;;;;;;4.00;2.40;;;24.00;53.60;;;;;;6078623;23;20474;-87
2021/09/22 15:59:58;;;;;;;3.67;2.20;;;24.00;53.60;;;;;;6080702;23;20378;-87
2021/09/22 16:02:34;;;;;;;2.17;1.97;;;24.10;53.70;;;;;;6055391;23;20414;-87
2021/09/22 16:05:12;;;;;;;2.90;2.30;;;24.00;53.60;;;;;;6119477;23;20420;-87
2021/09/22 16:08:17;;;;;;;;;;;;;;;;;;;;;
2021/09/22 16:10:52;;;;;;;2.83;2.37;;;24.10;53.60;;;;;;6139175;23;20787;-87
2021/09/22 16:13:27;;;;;;;2.20;2.00;;;24.10;53.70;;;;;;6138917;23;20417;-87
2021/09/22 16:15:59;;;;;;;2.47;2.07;;;24.10;53.70;;;;;;6114303;23;20387;-87
2021/09/22 16:22:08;;;;;;;2.30;1.97;;;24.10;53.60;;;;;;6144609;23;20448;-86
2021/09/22 16:24:42;;;;;;;2.80;2.10;;;24.00;53.60;;;;;;6178712;23;20863;-86
2021/09/22 16:27:16;;;;;;;2.37;2.17;;;24.00;53.70;;;;;;6235376;23;20424;-86
2021/09/22 16:29:45;;;;;;;3.33;2.30;;;24.10;53.70;;;;;;6234715;23;20427;-86
2021/09/22 16:32:37;;;;;;;;;;;;;;;;;;;;;
2021/09/22 16:35:11;;;;;;;2.47;1.80;;;24.00;54.20;;;;;;6232315;23;20374;-86
2021/09/22 16:37:40;;;;;;;2.13;1.93;;;24.00;53.60;;;;;;6209554;23;20461;-85
2021/09/22 16:40:15;;;;;;;2.40;1.87;;;24.00;53.70;;;;;;6235787;23;20370;-85
2021/09/22 16:46:17;;;;;;;2.00;1.70;;;24.00;53.60;;;;;;6236259;23;20946;-86
2021/09/22 16:48:42;;;;;;;2.03;1.80;;;24.00;53.70;;;;;;6209819;23;20446;-84
2021/09/22 16:54:32;;;;;;;2.53;1.83;;;24.00;53.70;;;;;;6243261;22;20188;-86
2021/09/22 17:03:52;;;;;;;2.20;2.00;;;24.00;53.70;;;;;;6176105;23;20412;-84
2021/09/22 17:06:28;;;;;;;;;;;;;;;;;;;;;
2021/09/22 17:09:02;;;;;;;3.90;2.33;;;23.90;53.70;;;;;;6168076;23;20379;-87
2021/09/22 17:11:28;;;;;;;2.87;2.27;;;23.90;53.70;;;;;;6173901;23;20372;-87
2021/09/22 17:13:56;;;;;;;3.43;1.80;;;23.90;53.70;;;;;;6149413;23;20467;-87
2021/09/22 17:16:27;;;;;;;2.40;1.70;;;23.90;53.70;;;;;;6149304;23;20391;-87
2021/09/22 17:19:01;;;;;;;2.40;2.20;;;23.90;53.60;;;;;;6175366;23;20406;-87
2021/09/22 17:21:31;;;;;;;3.00;2.23;;;23.90;53.60;;;;;;6149824;23;20372;-87
2021/09/22 17:24:35;;;;;;;3.30;2.00;;;23.90;53.60;;;;;;6148631;23;20412;-87
2021/09/22 17:27:13;;;;;;;;;;;;;;;;;;;;;
2021/09/22 17:29:47;;;;;;;2.40;2.20;;;23.90;53.60;;;;;;6175272;23;20735;-87
2021/09/22 17:32:55;;;;;;;1.70;1.60;;;23.90;53.60;;;;;;6150220;23;20372;-87
2021/09/22 17:35:56;;;;;;;2.10;1.90;;;23.90;53.60;;;;;;6150064;23;20399;-87
2021/09/22 17:38:43;;;;;;;2.53;2.00;;;23.90;53.60;;;;;;6235195;23;20385;-87
2021/09/22 17:41:53;;;;;;;2.40;2.20;;;23.90;53.70;;;;;;6242320;23;20388;-87
2021/09/22 17:44:35;;;;;;;2.53;1.80;;;23.90;53.60;;;;;;6188765;23;20392;-87
2021/09/22 17:47:19;;;;;;;;;;;;;;;;;;;;;
2021/09/22 17:56:38;;;;;;;2.00;1.80;;;23.90;53.70;;;;;;6114051;23;20409;-84
2021/09/22 17:59:44;;;;;;;2.67;2.30;;;23.90;53.60;;;;;;6089463;23;20477;-85
2021/09/22 18:02:55;;;;;;;3.43;2.30;;;23.90;53.50;;;;;;6089049;23;20377;-85
2021/09/22 18:05:47;;;;;;;2.70;2.30;;;23.90;53.50;;;;;;6114081;23;20378;-85
2021/09/22 18:16:07;;;;;;;;;;;;;;;;;;;;;
2021/09/22 18:22:22;;;;;;;3.37;2.77;;;23.90;53.40;;;;;;6026841;23;20451;-87
2021/09/22 18:24:59;;;;;;;4.10;2.83;;;23.90;53.50;;;;;;6118005;23;20424;-87
2021/09/22 18:28:06;;;;;;;;;;;;;;;;;;;;;
2021/09/22 18:31:05;;;;;;;5.70;3.20;;;23.90;53.40;;;;;;6142087;23;20365;-87
2021/09/22 18:40:27;;;;;;;4.07;2.80;;;23.90;53.40;;;;;;6142536;23;20466;-86
2021/09/22 18:43:31;;;;;;;;;;;;;;;;;;;;;
2021/09/22 18:52:39;;;;;;;2.90;2.67;;;23.90;53.40;;;;;;6234064;23;20346;-84
2021/09/22 18:55:40;;;;;;;3.47;2.53;;;23.90;53.50;;;;;;6249578;23;20381;-85
2021/09/22 18:58:27;;;;;;;3.63;2.57;;;23.90;53.50;;;;;;6239302;23;20449;-85
2021/09/22 19:01:22;;;;;;;3.03;2.60;;;23.90;53.50;;;;;;6238536;23;20389;-88
2021/09/22 19:03:57;;;;;;;2.50;2.30;;;23.90;53.50;;;;;;6261010;23;20389;-88
2021/09/22 19:06:48;;;;;;;3.30;2.80;;;23.90;53.50;;;;;;6239380;23;20413;-87
2021/09/22 19:09:34;;;;;;;3.40;2.60;;;23.90;53.50;;;;;;6260850;23;20387;-87
2021/09/22 19:15:46;;;;;;;2.70;2.20;;;23.90;53.50;;;;;;6246075;23;20377;-87
2021/09/22 19:25:16;;;;;;;3.03;2.40;;;23.90;53.50;;;;;;6117083;23;20439;-87
2021/09/22 19:28:22;;;;;;;;;;;;;;;;;;;;;
2021/09/22 19:31:01;;;;;;;;;;;;;;;;;;;;;
2021/09/22 19:33:42;;;;;;;3.33;2.57;;;23.80;53.40;;;;;;6111844;23;20369;-87
2021/09/22 19:36:22;;;;;;;2.57;2.37;;;23.80;53.40;;;;;;6114555;23;20370;-86
2021/09/22 19:38:51;;;;;;;2.93;2.40;;;23.80;53.40;;;;;;6089541;23;20399;-86
2021/09/22 19:41:20;;;;;;;4.13;2.60;;;23.80;53.40;;;;;;6114720;23;20378;-87
2021/09/22 19:43:48;;;;;;;3.30;2.87;;;23.80;53.40;;;;;;6090724;23;20378;-87
2021/09/22 19:46:17;;;;;;;3.90;2.67;;;23.80;53.40;;;;;;6065791;23;20528;-87
2021/09/22 19:48:44;;;;;;;2.87;2.20;;;23.80;53.40;;;;;;6090363;23;20382;-86
2021/09/22 19:51:16;;;;;;;2.77;2.50;;;23.80;53.40;;;;;;6090250;23;20382;-86
2021/09/22 19:54:13;;;;;;;3.00;2.30;;;23.80;54.00;;;;;;6114129;23;20436;-86
2021/09/22 19:56:58;;;;;;;2.93;2.50;;;23.80;53.40;;;;;;6089848;23;20429;-86
2021/09/22 19:59:34;;;;;;;3.40;2.13;;;23.70;53.30;;;;;;6233226;23;20450;-87
2021/09/22 20:02:27;;;;;;;3.63;2.63;;;23.70;53.40;;;;;;6207938;23;20864;-87
2021/09/22 20:11:30;;;;;;;5.77;2.80;;;23.80;53.50;;;;;;6234738;23;20442;-87
2021/09/22 20:14:09;;;;;;;;;;;;;;;;;;;;;
2021/09/22 20:16:35;;;;;;;3.63;2.27;;;23.70;53.50;;;;;;6236029;23;20385;-87
2021/09/22 20:19:03;;;;;;;2.37;2.17;;;23.70;53.50;;;;;;6207696;23;20374;-87
2021/09/22 20:21:29;;;;;;;2.73;1.90;;;23.70;54.10;;;;;;6234085;23;20397;-86
2021/09/22 20:27:21;;;;;;;;;;;;;;;;;;;;;
2021/09/22 20:30:00;;;;;;;3.33;2.30;;;23.80;53.50;;;;;;6265707;23;20354;-87
2021/09/22 20:32:42;;;;;;;;;;;;;;;;;;;;;
2021/09/22 20:35:23;;;;;;;;;;;;;;;;;;;;;
2021/09/22 20:37:56;;;;;;;3.90;2.90;;;23.70;53.50;;;;;;6242457;23;20414;-87
2021/09/22 20:40:28;;;;;;;2.60;2.27;;;23.70;53.50;;;;;;6239133;23;20377;-87
2021/09/22 20:43:04;;;;;;;3.10;1.90;;;23.70;53.40;;;;;;6239055;23;20384;-87
2021/09/22 20:45:30;;;;;;;3.53;2.47;;;23.70;53.40;;;;;;6264975;23;20385;-87
2021/09/22 20:48:14;;;;;;;2.00;1.80;;;23.70;53.40;;;;;;6237942;23;20407;-88
2021/09/22 20:51:07;;;;;;;3.17;2.30;;;23.70;53.30;;;;;;6238470;23;20377;-87
2021/09/22 20:53:54;;;;;;;3.90;2.70;;;23.70;53.30;;;;;;6231880;23;20889;-87
2021/09/22 20:56:21;;;;;;;2.70;2.23;;;23.70;53.40;;;;;;6240767;23;20389;-87
2021/09/22 20:58:53;;;;;;;2.63;2.33;;;23.70;53.40;;;;;;6266599;23;20369;-87
2021/09/22 21:02:10;;;;;;;;;;;;;;;;;;;;;
2021/09/22 21:05:02;;;;;;;2.53;2.13;;;23.70;53.40;;;;;;6261995;23;20436;-87
2021/09/22 21:07:45;;;;;;;4.10;2.40;;;23.70;53.40;;;;;;6240167;23;20420;-87
2021/09/22 21:10:15;;;;;;;2.63;2.37;;;23.70;53.50;;;;;;6240677;23;20399;-87
2021/09/22 21:12:56;;;;;;;;;;;;;;;;;;;;;
2021/09/22 21:15:26;;;;;;;2.53;2.10;;;23.70;53.50;;;;;;6267454;23;20338;-87
2021/09/22 21:17:54;;;;;;;3.53;2.20;;;23.60;53.40;;;;;;6267420;23;20372;-87
2021/09/22 21:20:35;;;;;;;3.50;2.40;;;23.60;53.40;;;;;;6233291;23;20381;-86
2021/09/22 21:26:26;;;;;;;2.50;2.30;;;23.70;53.50;;;;;;6259981;23;20417;-86
2021/09/22 21:29:06;;;;;;;2.63;2.07;;;23.60;53.40;;;;;;6234684;23;20419;-86
2021/09/22 21:31:37;;;;;;;2.90;2.60;;;23.60;53.50;;;;;;6234075;23;20412;-86
2021/09/22 21:34:06;;;;;;;2.60;2.40;;;23.60;53.50;;;;;;6233658;23;20370;-86
2021/09/22 21:36:33;;;;;;;3.10;2.50;;;23.60;53.50;;;;;;6234453;23;20393;-86
2021/09/22 21:39:05;;;;;;;2.87;2.37;;;23.60;53.50;;;;;;6233668;23;20389;-86
2021/09/22 21:41:32;;;;;;;2.40;2.20;;;23.60;53.50;;;;;;6232719;23;20396;-86
2021/09/22 21:44:00;;;;;;;2.50;2.17;;;23.70;53.50;;;;;;6233838;23;20392;-86
2021/09/22 21:46:26;;;;;;;3.20;2.60;;;23.70;53.50;;;;;;6234135;23;20424;-86
2021/09/22 21:49:00;;;;;;;2.60;2.10;;;23.70;53.50;;;;;;6233615;23;20385;-86
2021/09/22 21:51:27;;;;;;;2.77;2.27;;;23.70;53.50;;;;;;6234211;23;20182;-86
2021/09/22 21:54:02;;;;;;;2.30;2.03;;;23.70;53.50;;;;;;6233784;23;20434;-86
2021/09/22 21:56:35;;;;;;;2.70;2.37;;;23.70;53.50;;;;;;6233494;23;20389;-86
2021/09/22 21:59:03;;;;;;;2.30;2.10;;;23.70;53.50;;;;;;6259427;23;20384;-86
2021/09/22 22:01:32;;;;;;;3.03;2.30;;;23.70;53.50;;;;;;6233053;23;20455;-86
2021/09/22 22:04:03;;;;;;;3.13;2.30;;;23.70;53.50;;;;;;6232792;23;20396;-86
2021/09/22 22:06:29;;;;;;;2.97;2.30;;;23.70;53.40;;;;;;6232613;23;20428;-86
2021/09/22 22:08:56;;;;;;;2.40;2.20;;;23.70;53.40;;;;;;6233697;23;20412;-86
2021/09/22 22:14:53;;;;;;;3.00;2.70;;;23.80;53.50;;;;;;6259680;23;20344;-86
2021/09/22 22:17:31;;;;;;;2.67;2.47;;;23.70;53.40;;;;;;6232613;23;20810;-86
2021/09/22 22:19:58;;;;;;;2.60;2.40;;;23.70;53.40;;;;;;6260444;23;20345;-86
2021/09/22 22:22:26;;;;;;;2.87;2.43;;;23.70;53.40;;;;;;6233419;23;20768;-86
2021/09/22 22:24:56;;;;;;;3.17;2.50;;;23.70;53.40;;;;;;6260169;23;20441;-86
2021/09/22 22:27:22;;;;;;;2.80;2.37;;;23.70;54.00;;;;;;6232898;23;20424;-86
2021/09/22 22:29:56;;;;;;;3.17;2.40;;;23.70;53.50;;;;;;6232489;23;20377;-86
2021/09/22 22:32:22;;;;;;;2.57;2.30;;;23.70;54.00;;;;;;6233148;23;20145;-86
2021/09/22 22:34:53;;;;;;;2.67;2.37;;;23.70;53.50;;;;;;6233888;23;20397;-86
2021/09/22 22:37:21;;;;;;;5.43;2.83;;;23.70;53.50;;;;;;6232812;23;20388;-86
2021/09/22 22:39:53;;;;;;;2.33;2.13;;;23.70;53.40;;;;;;6233587;23;20389;-86
2021/09/22 22:45:46;;;;;;;3.70;2.00;;;23.70;53.40;;;;;;6260136;23;20432;-86
2021/09/22 22:48:18;;;;;;;2.83;2.50;;;23.70;53.50;;;;;;6233756;23;20373;-86
2021/09/22 22:50:46;;;;;;;3.00;2.13;;;23.70;53.50;;;;;;6259705;23;20425;-86
2021/09/22 22:53:15;;;;;;;2.73;2.30;;;23.70;53.50;;;;;;6232393;23;20385;-86
2021/09/22 22:55:44;;;;;;;2.40;2.20;;;23.70;53.50;;;;;;6232104;23;20453;-86
2021/09/22 22:58:13;;;;;;;3.50;2.67;;;23.70;53.50;;;;;;6232067;23;20436;-86
2021/09/22 23:00:39;;;;;;;3.03;2.10;;;23.70;53.50;;;;;;6234232;23;20374;-86
2021/09/22 23:03:05;;;;;;;2.87;2.60;;;23.70;53.40;;;;;;6259794;23;20373;-86
2021/09/22 23:05:37;;;;;;;2.60;2.00;;;23.70;53.40;;;;;;6232533;23;20464;-86
2021/09/22 23:08:08;;;;;;;2.43;2.10;;;23.70;53.40;;;;;;6233504;23;20374;-86
2021/09/22 23:10:49;;;;;;;2.80;2.60;;;23.70;53.40;;;;;;6232224;23;20439;-86
2021/09/22 23:13:20;;;;;;;2.90;2.40;;;23.70;53.40;;;;;;6234082;23;20445;-86
2021/09/22 23:15:51;;;;;;;2.30;2.10;;;23.70;53.40;;;;;;6233186;23;20385;-86
2021/09/22 23:18:31;;;;;;;2.70;2.30;;;23.70;53.40;;;;;;6231351;23;20377;-86
2021/09/22 23:21:43;;;;;;;2.70;2.20;;;23.70;53.40;;;;;;6233034;23;20377;-86
2021/09/22 23:24:17;;;;;;;2.60;2.20;;;23.70;53.40;;;;;;6231953;23;20381;-86
2021/09/22 23:27:05;;;;;;;3.70;1.83;;;23.70;53.50;;;;;;6231346;23;20421;-86
2021/09/22 23:29:31;;;;;;;3.07;2.60;;;23.60;53.40;;;;;;6258767;23;20404;-86
2021/09/22 23:32:02;;;;;;;2.10;1.90;;;23.60;53.40;;;;;;6258750;23;20369;-86
2021/09/22 23:37:51;;;;;;;2.60;2.40;;;23.60;53.40;;;;;;6259006;23;20372;-86
2021/09/22 23:40:33;;;;;;;2.50;2.30;;;23.60;53.40;;;;;;6259220;23;20380;-86
2021/09/22 23:43:00;;;;;;;2.93;2.27;;;23.60;53.40;;;;;;6258929;23;20377;-86
2021/09/22 23:45:26;;;;;;;2.53;2.27;;;23.60;53.40;;;;;;6232298;23;20385;-86
2021/09/22 23:47:52;;;;;;;2.83;2.63;;;23.60;53.40;;;;;;6231775;23;20407;-86
2021/09/22 23:50:28;;;;;;;2.20;1.97;;;23.60;53.40;;;;;;6208191;23;20398;-86
2021/09/22 23:52:54;;;;;;;2.50;2.30;;;23.60;53.40;;;;;;6232862;23;20870;-86
2021/09/22 23:55:21;;;;;;;2.33;2.00;;;23.60;53.40;;;;;;6259609;23;20365;-86
2021/09/22 23:57:48;;;;;;;2.80;2.27;;;23.60;53.40;;;;;;6207907;23;20169;-85
